sensor_id;sensor_type;location;lat;lon;timestamp;P1;durP1;ratioP1;P2;durP2;ratioP2
51866;SDS011;52862;52.504;13.480;2023-02-16T00:00:41;81.90;;;30.77;;
51866;SDS011;52862;52.504;13.480;2023-02-16T00:03:09;71.27;;;31.30;;
51866;SDS011;52862;52.504;13.480;2023-02-16T00:05:38;72.33;;;32.70;;
51866;SDS011;52862;52.504;13.480;2023-02-16T00:08:05;75.37;;;31.50;;
51866;SDS011;52862;52.504;13.480;2023-02-16T00:10:33;70.33;;;30.97;;
51866;SDS011;52862;52.504;13.480;2023-02-16T00:13:01;79.27;;;30.57;;
51866;SDS011;52862;52.504;13.480;2023-02-16T00:15:57;80.40;;;31.93;;
51866;SDS011;52862;52.504;13.480;2023-02-16T00:18:24;76.33;;;31.07;;
51866;SDS011;52862;52.504;13.480;2023-02-16T00:20:51;71.47;;;31.00;;
51866;SDS011;52862;52.504;13.480;2023-02-16T00:23:17;70.37;;;31.33;;
51866;SDS011;52862;52.504;13.480;2023-02-16T00:25:44;84.63;;;31.07;;
51866;SDS011;52862;52.504;13.480;2023-02-16T00:28:13;71.07;;;30.43;;
51866;SDS011;52862;52.504;13.480;2023-02-16T00:30:42;74.17;;;30.50;;
51866;SDS011;52862;52.504;13.480;2023-02-16T00:33:11;72.70;;;32.47;;
51866;SDS011;52862;52.504;13.480;2023-02-16T00:35:40;74.00;;;30.00;;
51866;SDS011;52862;52.504;13.480;2023-02-16T00:38:06;70.00;;;31.47;;
51866;SDS011;52862;52.504;13.480;2023-02-16T00:40:33;72.20;;;31.83;;
51866;SDS011;52862;52.504;13.480;2023-02-16T00:43:00;72.87;;;31.73;;
51866;SDS011;52862;52.504;13.480;2023-02-16T00:45:28;61.57;;;29.67;;
51866;SDS011;52862;52.504;13.480;2023-02-16T00:47:57;66.03;;;29.70;;
51866;SDS011;52862;52.504;13.480;2023-02-16T00:50:25;67.57;;;29.57;;
51866;SDS011;52862;52.504;13.480;2023-02-16T00:52:53;68.80;;;28.70;;
51866;SDS011;52862;52.504;13.480;2023-02-16T00:55:24;70.30;;;29.40;;
51866;SDS011;52862;52.504;13.480;2023-02-16T00:57:52;76.00;;;29.40;;
51866;SDS011;52862;52.504;13.480;2023-02-16T01:00:22;70.93;;;29.77;;
51866;SDS011;52862;52.504;13.480;2023-02-16T01:02:52;69.43;;;28.33;;
51866;SDS011;52862;52.504;13.480;2023-02-16T01:05:22;70.13;;;29.30;;
51866;SDS011;52862;52.504;13.480;2023-02-16T01:07:49;61.07;;;28.73;;
51866;SDS011;52862;52.504;13.480;2023-02-16T01:10:34;85.80;;;30.43;;
51866;SDS011;52862;52.504;13.480;2023-02-16T01:13:20;77.77;;;30.77;;
51866;SDS011;52862;52.504;13.480;2023-02-16T01:15:48;69.97;;;28.80;;
51866;SDS011;52862;52.504;13.480;2023-02-16T01:18:16;70.83;;;28.93;;
51866;SDS011;52862;52.504;13.480;2023-02-16T01:20:46;78.97;;;30.23;;
51866;SDS011;52862;52.504;13.480;2023-02-16T01:23:14;73.00;;;30.20;;
51866;SDS011;52862;52.504;13.480;2023-02-16T01:25:41;72.00;;;29.83;;
51866;SDS011;52862;52.504;13.480;2023-02-16T01:28:11;68.77;;;30.50;;
51866;SDS011;52862;52.504;13.480;2023-02-16T01:30:45;68.57;;;29.03;;
51866;SDS011;52862;52.504;13.480;2023-02-16T01:33:12;68.50;;;30.37;;
51866;SDS011;52862;52.504;13.480;2023-02-16T01:35:39;58.00;;;28.27;;
51866;SDS011;52862;52.504;13.480;2023-02-16T01:38:08;76.13;;;31.83;;
51866;SDS011;52862;52.504;13.480;2023-02-16T01:40:44;71.03;;;30.33;;
51866;SDS011;52862;52.504;13.480;2023-02-16T01:43:18;72.33;;;32.80;;
51866;SDS011;52862;52.504;13.480;2023-02-16T01:45:49;61.73;;;29.70;;
51866;SDS011;52862;52.504;13.480;2023-02-16T01:48:22;68.50;;;31.30;;
51866;SDS011;52862;52.504;13.480;2023-02-16T01:50:55;75.57;;;31.87;;
51866;SDS011;52862;52.504;13.480;2023-02-16T01:53:30;62.80;;;31.13;;
51866;SDS011;52862;52.504;13.480;2023-02-16T01:56:02;72.63;;;31.53;;
51866;SDS011;52862;52.504;13.480;2023-02-16T01:58:36;71.93;;;32.00;;
51866;SDS011;52862;52.504;13.480;2023-02-16T02:04:11;72.10;;;36.93;;
51866;SDS011;52862;52.504;13.480;2023-02-16T02:07:03;74.00;;;35.43;;
51866;SDS011;52862;52.504;13.480;2023-02-16T02:09:31;75.83;;;33.73;;
51866;SDS011;52862;52.504;13.480;2023-02-16T02:12:05;83.83;;;38.27;;
51866;SDS011;52862;52.504;13.480;2023-02-16T02:14:38;82.77;;;39.47;;
51866;SDS011;52862;52.504;13.480;2023-02-16T02:17:06;78.27;;;37.53;;
51866;SDS011;52862;52.504;13.480;2023-02-16T02:19:38;75.50;;;38.00;;
51866;SDS011;52862;52.504;13.480;2023-02-16T02:22:18;68.93;;;35.73;;
51866;SDS011;52862;52.504;13.480;2023-02-16T02:25:35;74.83;;;36.03;;
51866;SDS011;52862;52.504;13.480;2023-02-16T02:28:21;72.83;;;35.80;;
51866;SDS011;52862;52.504;13.480;2023-02-16T02:30:57;65.87;;;36.07;;
51866;SDS011;52862;52.504;13.480;2023-02-16T02:33:37;78.07;;;37.20;;
51866;SDS011;52862;52.504;13.480;2023-02-16T02:36:15;78.20;;;35.70;;
51866;SDS011;52862;52.504;13.480;2023-02-16T02:38:55;75.83;;;36.20;;
51866;SDS011;52862;52.504;13.480;2023-02-16T02:41:31;81.77;;;37.07;;
51866;SDS011;52862;52.504;13.480;2023-02-16T02:44:23;73.37;;;36.90;;
51866;SDS011;52862;52.504;13.480;2023-02-16T02:46:52;73.00;;;35.93;;
51866;SDS011;52862;52.504;13.480;2023-02-16T02:49:19;75.67;;;37.80;;
51866;SDS011;52862;52.504;13.480;2023-02-16T02:51:46;71.83;;;36.77;;
51866;SDS011;52862;52.504;13.480;2023-02-16T02:54:15;70.33;;;36.30;;
51866;SDS011;52862;52.504;13.480;2023-02-16T02:57:03;82.17;;;37.67;;
51866;SDS011;52862;52.504;13.480;2023-02-16T02:59:53;74.83;;;37.33;;
51866;SDS011;52862;52.504;13.480;2023-02-16T03:02:41;66.33;;;34.27;;
51866;SDS011;52862;52.504;13.480;2023-02-16T03:05:10;65.43;;;34.87;;
51866;SDS011;52862;52.504;13.480;2023-02-16T03:07:39;72.07;;;36.43;;
51866;SDS011;52862;52.504;13.480;2023-02-16T03:10:12;71.47;;;35.50;;
51866;SDS011;52862;52.504;13.480;2023-02-16T03:12:58;69.63;;;36.03;;
51866;SDS011;52862;52.504;13.480;2023-02-16T03:15:27;79.00;;;36.73;;
51866;SDS011;52862;52.504;13.480;2023-02-16T03:17:56;70.97;;;35.00;;
51866;SDS011;52862;52.504;13.480;2023-02-16T03:20:42;69.83;;;36.10;;
51866;SDS011;52862;52.504;13.480;2023-02-16T03:23:29;70.13;;;36.70;;
51866;SDS011;52862;52.504;13.480;2023-02-16T03:26:14;67.80;;;34.70;;
51866;SDS011;52862;52.504;13.480;2023-02-16T03:29:00;68.03;;;34.03;;
51866;SDS011;52862;52.504;13.480;2023-02-16T03:31:43;65.40;;;33.77;;
51866;SDS011;52862;52.504;13.480;2023-02-16T03:34:12;76.43;;;33.47;;
51866;SDS011;52862;52.504;13.480;2023-02-16T03:36:40;62.73;;;32.27;;
51866;SDS011;52862;52.504;13.480;2023-02-16T03:39:09;63.50;;;32.00;;
51866;SDS011;52862;52.504;13.480;2023-02-16T03:41:37;61.43;;;28.97;;
51866;SDS011;52862;52.504;13.480;2023-02-16T03:44:05;64.03;;;30.80;;
51866;SDS011;52862;52.504;13.480;2023-02-16T03:46:32;65.43;;;31.80;;
51866;SDS011;52862;52.504;13.480;2023-02-16T03:49:00;57.67;;;27.40;;
51866;SDS011;52862;52.504;13.480;2023-02-16T03:51:26;55.50;;;27.20;;
51866;SDS011;52862;52.504;13.480;2023-02-16T03:53:53;53.37;;;27.03;;
51866;SDS011;52862;52.504;13.480;2023-02-16T03:56:20;60.10;;;26.30;;
51866;SDS011;52862;52.504;13.480;2023-02-16T03:58:47;56.50;;;25.97;;
51866;SDS011;52862;52.504;13.480;2023-02-16T04:01:14;54.93;;;26.80;;
51866;SDS011;52862;52.504;13.480;2023-02-16T04:03:41;47.30;;;23.87;;
51866;SDS011;52862;52.504;13.480;2023-02-16T04:06:08;43.87;;;22.57;;
51866;SDS011;52862;52.504;13.480;2023-02-16T04:08:35;47.20;;;22.47;;
51866;SDS011;52862;52.504;13.480;2023-02-16T04:11:02;53.07;;;23.30;;
51866;SDS011;52862;52.504;13.480;2023-02-16T04:13:50;50.40;;;24.13;;
51866;SDS011;52862;52.504;13.480;2023-02-16T04:16:17;43.37;;;22.67;;
51866;SDS011;52862;52.504;13.480;2023-02-16T04:18:44;46.07;;;23.33;;
51866;SDS011;52862;52.504;13.480;2023-02-16T04:21:11;57.10;;;23.70;;
51866;SDS011;52862;52.504;13.480;2023-02-16T04:23:38;57.53;;;22.50;;
51866;SDS011;52862;52.504;13.480;2023-02-16T04:26:05;44.93;;;22.07;;
51866;SDS011;52862;52.504;13.480;2023-02-16T04:28:32;50.53;;;22.83;;
51866;SDS011;52862;52.504;13.480;2023-02-16T04:30:59;46.23;;;21.67;;
51866;SDS011;52862;52.504;13.480;2023-02-16T04:33:26;42.73;;;22.03;;
51866;SDS011;52862;52.504;13.480;2023-02-16T04:35:53;41.90;;;21.93;;
51866;SDS011;52862;52.504;13.480;2023-02-16T04:38:20;50.83;;;23.27;;
51866;SDS011;52862;52.504;13.480;2023-02-16T04:40:47;44.17;;;21.13;;
51866;SDS011;52862;52.504;13.480;2023-02-16T04:43:14;47.67;;;21.50;;
51866;SDS011;52862;52.504;13.480;2023-02-16T04:45:40;42.63;;;20.90;;
51866;SDS011;52862;52.504;13.480;2023-02-16T04:48:07;51.93;;;21.80;;
51866;SDS011;52862;52.504;13.480;2023-02-16T04:50:34;42.83;;;22.10;;
51866;SDS011;52862;52.504;13.480;2023-02-16T04:53:01;47.50;;;22.43;;
51866;SDS011;52862;52.504;13.480;2023-02-16T04:55:29;51.87;;;22.47;;
51866;SDS011;52862;52.504;13.480;2023-02-16T04:57:55;46.97;;;22.37;;
51866;SDS011;52862;52.504;13.480;2023-02-16T05:00:22;48.90;;;20.90;;
51866;SDS011;52862;52.504;13.480;2023-02-16T05:02:49;42.57;;;20.77;;
51866;SDS011;52862;52.504;13.480;2023-02-16T05:05:17;44.13;;;21.27;;
51866;SDS011;52862;52.504;13.480;2023-02-16T05:07:43;42.50;;;21.50;;
51866;SDS011;52862;52.504;13.480;2023-02-16T05:10:10;48.03;;;21.47;;
51866;SDS011;52862;52.504;13.480;2023-02-16T05:12:38;48.47;;;22.47;;
51866;SDS011;52862;52.504;13.480;2023-02-16T05:15:23;43.40;;;21.00;;
51866;SDS011;52862;52.504;13.480;2023-02-16T05:17:49;48.63;;;22.50;;
51866;SDS011;52862;52.504;13.480;2023-02-16T05:20:16;47.10;;;22.73;;
51866;SDS011;52862;52.504;13.480;2023-02-16T05:22:43;46.80;;;20.27;;
51866;SDS011;52862;52.504;13.480;2023-02-16T05:25:10;39.67;;;21.37;;
51866;SDS011;52862;52.504;13.480;2023-02-16T05:27:38;56.60;;;22.40;;
51866;SDS011;52862;52.504;13.480;2023-02-16T05:30:05;59.77;;;24.40;;
51866;SDS011;52862;52.504;13.480;2023-02-16T05:32:32;44.13;;;22.53;;
51866;SDS011;52862;52.504;13.480;2023-02-16T05:34:59;56.33;;;24.03;;
51866;SDS011;52862;52.504;13.480;2023-02-16T05:37:26;47.30;;;22.60;;
51866;SDS011;52862;52.504;13.480;2023-02-16T05:39:53;48.07;;;21.60;;
51866;SDS011;52862;52.504;13.480;2023-02-16T05:42:20;68.67;;;24.63;;
51866;SDS011;52862;52.504;13.480;2023-02-16T05:44:47;50.47;;;23.40;;
51866;SDS011;52862;52.504;13.480;2023-02-16T05:47:14;42.87;;;22.67;;
51866;SDS011;52862;52.504;13.480;2023-02-16T05:49:41;49.40;;;21.83;;
51866;SDS011;52862;52.504;13.480;2023-02-16T05:52:08;48.00;;;22.20;;
51866;SDS011;52862;52.504;13.480;2023-02-16T05:54:34;45.83;;;22.63;;
51866;SDS011;52862;52.504;13.480;2023-02-16T05:57:01;41.33;;;21.13;;
51866;SDS011;52862;52.504;13.480;2023-02-16T05:59:28;52.40;;;21.83;;
51866;SDS011;52862;52.504;13.480;2023-02-16T06:01:56;42.60;;;21.83;;
51866;SDS011;52862;52.504;13.480;2023-02-16T06:04:22;56.37;;;25.20;;
51866;SDS011;52862;52.504;13.480;2023-02-16T06:06:49;52.90;;;24.33;;
51866;SDS011;52862;52.504;13.480;2023-02-16T06:09:16;52.73;;;22.17;;
51866;SDS011;52862;52.504;13.480;2023-02-16T06:11:43;57.27;;;24.10;;
51866;SDS011;52862;52.504;13.480;2023-02-16T06:14:11;53.57;;;24.60;;
51866;SDS011;52862;52.504;13.480;2023-02-16T06:16:40;51.97;;;22.53;;
51866;SDS011;52862;52.504;13.480;2023-02-16T06:19:09;53.40;;;22.50;;
51866;SDS011;52862;52.504;13.480;2023-02-16T06:21:37;58.43;;;23.60;;
51866;SDS011;52862;52.504;13.480;2023-02-16T06:24:04;47.00;;;23.27;;
51866;SDS011;52862;52.504;13.480;2023-02-16T06:26:31;50.30;;;23.43;;
51866;SDS011;52862;52.504;13.480;2023-02-16T06:28:58;47.17;;;22.50;;
51866;SDS011;52862;52.504;13.480;2023-02-16T06:31:25;47.90;;;21.47;;
51866;SDS011;52862;52.504;13.480;2023-02-16T06:33:53;55.60;;;25.13;;
51866;SDS011;52862;52.504;13.480;2023-02-16T06:36:22;47.87;;;22.00;;
51866;SDS011;52862;52.504;13.480;2023-02-16T06:38:49;52.67;;;23.57;;
51866;SDS011;52862;52.504;13.480;2023-02-16T06:41:16;59.87;;;22.97;;
51866;SDS011;52862;52.504;13.480;2023-02-16T06:43:56;61.43;;;21.67;;
51866;SDS011;52862;52.504;13.480;2023-02-16T06:46:23;49.27;;;22.87;;
51866;SDS011;52862;52.504;13.480;2023-02-16T06:48:50;55.13;;;23.53;;
51866;SDS011;52862;52.504;13.480;2023-02-16T06:51:17;56.03;;;22.83;;
51866;SDS011;52862;52.504;13.480;2023-02-16T06:53:45;51.93;;;22.17;;
51866;SDS011;52862;52.504;13.480;2023-02-16T06:56:12;56.03;;;24.23;;
51866;SDS011;52862;52.504;13.480;2023-02-16T06:58:38;49.50;;;22.03;;
51866;SDS011;52862;52.504;13.480;2023-02-16T07:01:06;51.40;;;23.43;;
51866;SDS011;52862;52.504;13.480;2023-02-16T07:03:33;51.57;;;22.90;;
51866;SDS011;52862;52.504;13.480;2023-02-16T07:06:00;50.63;;;21.47;;
51866;SDS011;52862;52.504;13.480;2023-02-16T07:08:27;61.57;;;22.90;;
51866;SDS011;52862;52.504;13.480;2023-02-16T07:10:54;49.23;;;20.70;;
51866;SDS011;52862;52.504;13.480;2023-02-16T07:13:21;51.93;;;21.20;;
51866;SDS011;52862;52.504;13.480;2023-02-16T07:15:49;43.63;;;21.20;;
51866;SDS011;52862;52.504;13.480;2023-02-16T07:18:16;47.47;;;20.87;;
51866;SDS011;52862;52.504;13.480;2023-02-16T07:20:43;58.63;;;22.87;;
51866;SDS011;52862;52.504;13.480;2023-02-16T07:23:09;43.83;;;21.50;;
51866;SDS011;52862;52.504;13.480;2023-02-16T07:25:36;49.70;;;22.57;;
51866;SDS011;52862;52.504;13.480;2023-02-16T07:28:04;49.53;;;21.90;;
51866;SDS011;52862;52.504;13.480;2023-02-16T07:30:30;51.10;;;22.10;;
51866;SDS011;52862;52.504;13.480;2023-02-16T07:32:57;55.60;;;23.67;;
51866;SDS011;52862;52.504;13.480;2023-02-16T07:35:24;52.93;;;21.80;;
51866;SDS011;52862;52.504;13.480;2023-02-16T07:37:51;55.70;;;23.37;;
51866;SDS011;52862;52.504;13.480;2023-02-16T07:40:18;47.70;;;21.93;;
51866;SDS011;52862;52.504;13.480;2023-02-16T07:42:45;54.83;;;21.83;;
51866;SDS011;52862;52.504;13.480;2023-02-16T07:45:13;62.50;;;22.13;;
51866;SDS011;52862;52.504;13.480;2023-02-16T07:47:39;49.57;;;21.97;;
51866;SDS011;52862;52.504;13.480;2023-02-16T07:50:06;46.10;;;22.07;;
51866;SDS011;52862;52.504;13.480;2023-02-16T07:52:34;59.03;;;24.47;;
51866;SDS011;52862;52.504;13.480;2023-02-16T07:55:01;63.13;;;23.17;;
51866;SDS011;52862;52.504;13.480;2023-02-16T07:57:28;48.83;;;23.43;;
51866;SDS011;52862;52.504;13.480;2023-02-16T07:59:55;51.27;;;23.40;;
51866;SDS011;52862;52.504;13.480;2023-02-16T08:02:23;58.53;;;23.33;;
51866;SDS011;52862;52.504;13.480;2023-02-16T08:04:51;51.10;;;22.93;;
51866;SDS011;52862;52.504;13.480;2023-02-16T08:07:18;46.60;;;23.77;;
51866;SDS011;52862;52.504;13.480;2023-02-16T08:09:45;50.53;;;23.33;;
51866;SDS011;52862;52.504;13.480;2023-02-16T08:12:13;52.00;;;23.27;;
51866;SDS011;52862;52.504;13.480;2023-02-16T08:14:40;57.27;;;23.27;;
51866;SDS011;52862;52.504;13.480;2023-02-16T08:17:08;51.80;;;23.30;;
51866;SDS011;52862;52.504;13.480;2023-02-16T08:19:35;54.47;;;24.07;;
51866;SDS011;52862;52.504;13.480;2023-02-16T08:22:15;52.33;;;22.47;;
51866;SDS011;52862;52.504;13.480;2023-02-16T08:24:42;58.93;;;22.57;;
51866;SDS011;52862;52.504;13.480;2023-02-16T08:27:09;57.20;;;24.63;;
51866;SDS011;52862;52.504;13.480;2023-02-16T08:29:36;50.63;;;23.20;;
51866;SDS011;52862;52.504;13.480;2023-02-16T08:32:03;52.47;;;23.80;;
51866;SDS011;52862;52.504;13.480;2023-02-16T08:34:32;52.50;;;23.63;;
51866;SDS011;52862;52.504;13.480;2023-02-16T08:36:59;50.33;;;23.53;;
51866;SDS011;52862;52.504;13.480;2023-02-16T08:39:27;54.17;;;23.27;;
51866;SDS011;52862;52.504;13.480;2023-02-16T08:41:55;52.50;;;23.33;;
51866;SDS011;52862;52.504;13.480;2023-02-16T08:44:23;56.23;;;21.97;;
51866;SDS011;52862;52.504;13.480;2023-02-16T08:46:51;53.97;;;24.27;;
51866;SDS011;52862;52.504;13.480;2023-02-16T08:49:20;67.63;;;24.43;;
51866;SDS011;52862;52.504;13.480;2023-02-16T08:51:48;60.60;;;23.17;;
51866;SDS011;52862;52.504;13.480;2023-02-16T08:54:18;62.50;;;24.23;;
51866;SDS011;52862;52.504;13.480;2023-02-16T08:56:46;52.77;;;23.00;;
51866;SDS011;52862;52.504;13.480;2023-02-16T08:59:14;55.50;;;23.53;;
51866;SDS011;52862;52.504;13.480;2023-02-16T09:01:42;56.30;;;22.63;;
51866;SDS011;52862;52.504;13.480;2023-02-16T09:04:09;59.97;;;24.30;;
51866;SDS011;52862;52.504;13.480;2023-02-16T09:06:37;59.43;;;24.00;;
51866;SDS011;52862;52.504;13.480;2023-02-16T09:09:05;54.23;;;23.33;;
51866;SDS011;52862;52.504;13.480;2023-02-16T09:11:34;49.27;;;22.63;;
51866;SDS011;52862;52.504;13.480;2023-02-16T09:14:01;57.47;;;23.33;;
51866;SDS011;52862;52.504;13.480;2023-02-16T09:16:28;53.33;;;23.30;;
51866;SDS011;52862;52.504;13.480;2023-02-16T09:18:58;70.73;;;22.83;;
51866;SDS011;52862;52.504;13.480;2023-02-16T09:21:26;52.40;;;24.13;;
51866;SDS011;52862;52.504;13.480;2023-02-16T09:23:56;57.17;;;23.93;;
51866;SDS011;52862;52.504;13.480;2023-02-16T09:26:25;60.27;;;24.63;;
51866;SDS011;52862;52.504;13.480;2023-02-16T09:28:54;55.73;;;23.03;;
51866;SDS011;52862;52.504;13.480;2023-02-16T09:31:24;62.90;;;24.87;;
51866;SDS011;52862;52.504;13.480;2023-02-16T09:33:54;61.43;;;25.43;;
51866;SDS011;52862;52.504;13.480;2023-02-16T09:36:22;54.07;;;25.10;;
51866;SDS011;52862;52.504;13.480;2023-02-16T09:38:49;51.77;;;23.40;;
51866;SDS011;52862;52.504;13.480;2023-02-16T09:41:20;60.13;;;23.97;;
51866;SDS011;52862;52.504;13.480;2023-02-16T09:43:55;53.07;;;24.07;;
51866;SDS011;52862;52.504;13.480;2023-02-16T09:46:24;64.47;;;25.37;;
51866;SDS011;52862;52.504;13.480;2023-02-16T09:48:52;58.60;;;24.77;;
51866;SDS011;52862;52.504;13.480;2023-02-16T09:51:22;57.67;;;24.30;;
51866;SDS011;52862;52.504;13.480;2023-02-16T09:54:01;66.90;;;25.40;;
51866;SDS011;52862;52.504;13.480;2023-02-16T09:56:39;55.10;;;23.70;;
51866;SDS011;52862;52.504;13.480;2023-02-16T09:59:12;58.60;;;24.03;;
51866;SDS011;52862;52.504;13.480;2023-02-16T10:01:59;63.00;;;23.93;;
51866;SDS011;52862;52.504;13.480;2023-02-16T10:04:42;56.50;;;25.60;;
51866;SDS011;52862;52.504;13.480;2023-02-16T10:07:20;69.40;;;26.30;;
51866;SDS011;52862;52.504;13.480;2023-02-16T10:09:57;53.73;;;23.30;;
51866;SDS011;52862;52.504;13.480;2023-02-16T10:12:28;63.03;;;26.60;;
51866;SDS011;52862;52.504;13.480;2023-02-16T10:15:00;60.73;;;26.00;;
51866;SDS011;52862;52.504;13.480;2023-02-16T10:17:32;60.50;;;25.50;;
51866;SDS011;52862;52.504;13.480;2023-02-16T10:20:10;62.50;;;25.00;;
51866;SDS011;52862;52.504;13.480;2023-02-16T10:22:38;61.67;;;26.43;;
51866;SDS011;52862;52.504;13.480;2023-02-16T10:25:14;60.03;;;26.13;;
51866;SDS011;52862;52.504;13.480;2023-02-16T10:27:46;71.13;;;26.77;;
51866;SDS011;52862;52.504;13.480;2023-02-16T10:30:18;65.17;;;27.90;;
51866;SDS011;52862;52.504;13.480;2023-02-16T10:32:56;61.43;;;27.57;;
51866;SDS011;52862;52.504;13.480;2023-02-16T10:35:28;63.47;;;26.23;;
51866;SDS011;52862;52.504;13.480;2023-02-16T10:38:06;60.77;;;26.87;;
51866;SDS011;52862;52.504;13.480;2023-02-16T10:40:40;66.27;;;21.90;;
51866;SDS011;52862;52.504;13.480;2023-02-16T10:43:14;66.50;;;26.93;;
51866;SDS011;52862;52.504;13.480;2023-02-16T10:45:48;58.70;;;26.13;;
51866;SDS011;52862;52.504;13.480;2023-02-16T10:48:18;60.93;;;27.63;;
51866;SDS011;52862;52.504;13.480;2023-02-16T10:50:48;70.83;;;27.70;;
51866;SDS011;52862;52.504;13.480;2023-02-16T10:53:23;60.10;;;27.77;;
51866;SDS011;52862;52.504;13.480;2023-02-16T10:56:00;64.47;;;28.00;;
51866;SDS011;52862;52.504;13.480;2023-02-16T10:58:27;68.70;;;27.00;;
51866;SDS011;52862;52.504;13.480;2023-02-16T11:01:04;62.50;;;27.30;;
51866;SDS011;52862;52.504;13.480;2023-02-16T11:03:39;57.00;;;25.20;;
51866;SDS011;52862;52.504;13.480;2023-02-16T11:06:12;61.10;;;27.13;;
51866;SDS011;52862;52.504;13.480;2023-02-16T11:08:45;60.80;;;25.87;;
51866;SDS011;52862;52.504;13.480;2023-02-16T11:11:14;65.03;;;25.57;;
51866;SDS011;52862;52.504;13.480;2023-02-16T11:13:45;69.10;;;28.93;;
51866;SDS011;52862;52.504;13.480;2023-02-16T11:16:18;56.67;;;26.97;;
51866;SDS011;52862;52.504;13.480;2023-02-16T11:18:48;51.13;;;22.73;;
51866;SDS011;52862;52.504;13.480;2023-02-16T11:21:40;61.00;;;26.90;;
51866;SDS011;52862;52.504;13.480;2023-02-16T11:24:12;63.23;;;26.33;;
51866;SDS011;52862;52.504;13.480;2023-02-16T11:26:57;72.07;;;27.63;;
51866;SDS011;52862;52.504;13.480;2023-02-16T11:29:26;67.37;;;26.43;;
51866;SDS011;52862;52.504;13.480;2023-02-16T11:31:53;60.43;;;23.80;;
51866;SDS011;52862;52.504;13.480;2023-02-16T11:34:25;61.33;;;26.53;;
51866;SDS011;52862;52.504;13.480;2023-02-16T11:37:00;65.67;;;26.67;;
51866;SDS011;52862;52.504;13.480;2023-02-16T11:39:32;60.17;;;27.20;;
51866;SDS011;52862;52.504;13.480;2023-02-16T11:42:02;66.63;;;27.97;;
51866;SDS011;52862;52.504;13.480;2023-02-16T11:44:31;61.10;;;26.57;;
51866;SDS011;52862;52.504;13.480;2023-02-16T11:47:02;70.33;;;27.00;;
51866;SDS011;52862;52.504;13.480;2023-02-16T11:49:31;71.27;;;26.73;;
51866;SDS011;52862;52.504;13.480;2023-02-16T11:51:59;60.97;;;24.43;;
51866;SDS011;52862;52.504;13.480;2023-02-16T11:54:46;58.87;;;26.30;;
51866;SDS011;52862;52.504;13.480;2023-02-16T11:57:13;70.10;;;26.57;;
51866;SDS011;52862;52.504;13.480;2023-02-16T11:59:47;63.63;;;27.63;;
51866;SDS011;52862;52.504;13.480;2023-02-16T12:05:21;60.97;;;26.97;;
51866;SDS011;52862;52.504;13.480;2023-02-16T12:07:57;61.27;;;27.40;;
51866;SDS011;52862;52.504;13.480;2023-02-16T12:10:42;56.20;;;26.97;;
51866;SDS011;52862;52.504;13.480;2023-02-16T12:13:16;67.80;;;26.27;;
51866;SDS011;52862;52.504;13.480;2023-02-16T12:15:48;57.53;;;27.37;;
51866;SDS011;52862;52.504;13.480;2023-02-16T12:18:26;55.70;;;24.93;;
51866;SDS011;52862;52.504;13.480;2023-02-16T12:21:01;63.00;;;26.13;;
51866;SDS011;52862;52.504;13.480;2023-02-16T12:23:37;66.93;;;27.20;;
51866;SDS011;52862;52.504;13.480;2023-02-16T12:26:15;64.33;;;26.80;;
51866;SDS011;52862;52.504;13.480;2023-02-16T12:28:58;64.27;;;26.10;;
51866;SDS011;52862;52.504;13.480;2023-02-16T12:31:33;53.83;;;24.50;;
51866;SDS011;52862;52.504;13.480;2023-02-16T12:34:15;54.70;;;23.40;;
51866;SDS011;52862;52.504;13.480;2023-02-16T12:36:50;58.73;;;25.10;;
51866;SDS011;52862;52.504;13.480;2023-02-16T12:39:23;60.80;;;24.87;;
51866;SDS011;52862;52.504;13.480;2023-02-16T12:42:01;59.83;;;24.17;;
51866;SDS011;52862;52.504;13.480;2023-02-16T12:44:41;55.97;;;24.17;;
51866;SDS011;52862;52.504;13.480;2023-02-16T12:47:11;59.00;;;25.73;;
51866;SDS011;52862;52.504;13.480;2023-02-16T12:49:46;63.20;;;25.23;;
51866;SDS011;52862;52.504;13.480;2023-02-16T12:52:21;60.87;;;24.37;;
51866;SDS011;52862;52.504;13.480;2023-02-16T12:54:56;62.93;;;26.63;;
51866;SDS011;52862;52.504;13.480;2023-02-16T12:57:28;58.53;;;25.13;;
51866;SDS011;52862;52.504;13.480;2023-02-16T13:00:01;56.23;;;22.97;;
51866;SDS011;52862;52.504;13.480;2023-02-16T13:02:34;62.07;;;24.47;;
51866;SDS011;52862;52.504;13.480;2023-02-16T13:05:08;57.27;;;24.40;;
51866;SDS011;52862;52.504;13.480;2023-02-16T13:07:38;55.13;;;24.77;;
51866;SDS011;52862;52.504;13.480;2023-02-16T13:10:13;60.63;;;24.43;;
51866;SDS011;52862;52.504;13.480;2023-02-16T13:12:47;55.87;;;23.10;;
51866;SDS011;52862;52.504;13.480;2023-02-16T13:15:17;44.27;;;20.60;;
51866;SDS011;52862;52.504;13.480;2023-02-16T13:17:48;59.57;;;23.20;;
51866;SDS011;52862;52.504;13.480;2023-02-16T13:20:19;62.10;;;23.30;;
51866;SDS011;52862;52.504;13.480;2023-02-16T13:22:51;51.70;;;23.03;;
51866;SDS011;52862;52.504;13.480;2023-02-16T13:25:51;46.57;;;22.10;;
51866;SDS011;52862;52.504;13.480;2023-02-16T13:28:39;46.53;;;23.27;;
51866;SDS011;52862;52.504;13.480;2023-02-16T13:31:24;53.77;;;21.60;;
51866;SDS011;52862;52.504;13.480;2023-02-16T13:37:15;57.63;;;21.40;;
51866;SDS011;52862;52.504;13.480;2023-02-16T13:39:52;46.33;;;20.63;;
51866;SDS011;52862;52.504;13.480;2023-02-16T13:45:44;50.57;;;22.27;;
51866;SDS011;52862;52.504;13.480;2023-02-16T13:48:13;53.23;;;21.47;;
51866;SDS011;52862;52.504;13.480;2023-02-16T13:50:47;51.93;;;22.63;;
51866;SDS011;52862;52.504;13.480;2023-02-16T13:53:21;53.27;;;21.40;;
51866;SDS011;52862;52.504;13.480;2023-02-16T13:55:49;56.40;;;21.23;;
51866;SDS011;52862;52.504;13.480;2023-02-16T13:58:42;46.33;;;20.13;;
51866;SDS011;52862;52.504;13.480;2023-02-16T14:04:04;63.03;;;22.73;;
51866;SDS011;52862;52.504;13.480;2023-02-16T14:06:36;45.37;;;20.53;;
51866;SDS011;52862;52.504;13.480;2023-02-16T14:12:02;56.63;;;22.83;;
51866;SDS011;52862;52.504;13.480;2023-02-16T14:14:42;54.60;;;24.00;;
51866;SDS011;52862;52.504;13.480;2023-02-16T14:17:14;59.53;;;22.40;;
51866;SDS011;52862;52.504;13.480;2023-02-16T14:19:47;48.23;;;21.57;;
51866;SDS011;52862;52.504;13.480;2023-02-16T14:22:17;47.93;;;21.33;;
51866;SDS011;52862;52.504;13.480;2023-02-16T14:24:49;53.70;;;22.93;;
51866;SDS011;52862;52.504;13.480;2023-02-16T14:30:13;48.50;;;20.93;;
51866;SDS011;52862;52.504;13.480;2023-02-16T14:32:46;48.17;;;21.43;;
51866;SDS011;52862;52.504;13.480;2023-02-16T14:35:20;58.20;;;22.40;;
51866;SDS011;52862;52.504;13.480;2023-02-16T14:37:51;60.10;;;21.80;;
51866;SDS011;52862;52.504;13.480;2023-02-16T14:40:20;59.60;;;20.93;;
51866;SDS011;52862;52.504;13.480;2023-02-16T14:43:05;57.37;;;22.07;;
51866;SDS011;52862;52.504;13.480;2023-02-16T14:45:54;53.60;;;20.47;;
51866;SDS011;52862;52.504;13.480;2023-02-16T14:51:35;55.63;;;21.23;;
51866;SDS011;52862;52.504;13.480;2023-02-16T14:54:23;63.93;;;22.90;;
51866;SDS011;52862;52.504;13.480;2023-02-16T14:57:12;68.57;;;21.33;;